Time;durP1;ratioP1;P1;durP2;ratioP2;P2;SDS_P1;SDS_P2;PMS_P1;PMS_P2;Temp;Humidity;BMP_temperature;BMP_pressure;BME280_temperature;BME280_humidity;BME280_pressure;Samples;Min_cycle;Max_cycle;Signal;HPM_P1;HPM_P2
2022/03/03 00:00:44;;;;;;;13.50;2.63;;;23.20;99.90;;;;;;6129844;23;20001;-74
2022/03/03 00:03:12;;;;;;;12.55;2.42;;;23.30;99.90;;;;;;6155920;23;19998;-75
2022/03/03 00:05:39;;;;;;;11.93;2.25;;;23.10;99.90;;;;;;6101935;23;20021;-75
2022/03/03 00:08:06;;;;;;;10.18;2.17;;;23.10;99.90;;;;;;6126434;23;20002;-74
2022/03/03 00:10:34;;;;;;;16.52;3.00;;;23.20;99.90;;;;;;6126526;23;19998;-75
2022/03/03 00:13:01;;;;;;;16.45;3.17;;;23.20;99.90;;;;;;6100332;23;20005;-74
2022/03/03 00:15:34;;;;;;;14.13;2.60;;;23.30;99.90;;;;;;6126563;23;20061;-74
2022/03/03 00:18:02;;;;;;;12.07;1.85;;;23.60;99.90;;;;;;6126413;23;20115;-74
2022/03/03 00:20:30;;;;;;;12.90;2.35;;;23.60;99.90;;;;;;6126459;23;20018;-75
2022/03/03 00:22:57;;;;;;;9.77;1.88;;;23.70;99.90;;;;;;6100379;23;20016;-74
2022/03/03 00:25:25;;;;;;;13.43;1.90;;;23.50;99.90;;;;;;6126376;23;20006;-74
2022/03/03 00:27:52;;;;;;;9.32;1.77;;;23.60;99.90;;;;;;6100260;23;20057;-74
2022/03/03 00:30:19;;;;;;;9.15;2.65;;;23.70;99.90;;;;;;6100102;23;20014;-74
2022/03/03 00:32:46;;;;;;;16.00;2.33;;;23.80;99.90;;;;;;6126370;23;20002;-75
2022/03/03 00:35:14;;;;;;;10.98;2.95;;;23.60;99.90;;;;;;6126267;23;19998;-74
2022/03/03 00:37:41;;;;;;;12.30;3.33;;;23.70;99.90;;;;;;6126211;23;20187;-74
2022/03/03 00:40:10;;;;;;;17.33;3.25;;;23.70;99.90;;;;;;6126253;23;20030;-74
2022/03/03 00:42:37;;;;;;;12.07;2.25;;;23.80;99.90;;;;;;6100082;23;20010;-74
2022/03/03 00:45:05;;;;;;;16.25;2.90;;;24.00;99.90;;;;;;6126186;23;20013;-75
2022/03/03 00:47:33;;;;;;;14.68;3.15;;;24.20;99.90;;;;;;6126286;23;20002;-75
2022/03/03 00:50:01;;;;;;;12.63;2.10;;;24.20;99.90;;;;;;6126233;23;20453;-75
2022/03/03 00:52:28;;;;;;;11.98;2.55;;;23.90;99.90;;;;;;6126228;23;20005;-74
2022/03/03 00:54:55;;;;;;;12.13;2.22;;;23.60;99.90;;;;;;6125946;23;19998;-74
2022/03/03 00:57:23;;;;;;;12.02;2.30;;;23.50;99.90;;;;;;6099933;23;20006;-74
2022/03/03 00:59:50;;;;;;;14.32;2.65;;;23.70;99.90;;;;;;6126043;23;20084;-75
2022/03/03 01:02:17;;;;;;;12.23;2.88;;;23.80;99.90;;;;;;6100060;23;20344;-74
2022/03/03 01:04:44;;;;;;;16.63;2.65;;;23.90;99.90;;;;;;6099796;23;20376;-75
2022/03/03 01:07:12;;;;;;;18.42;3.25;;;23.90;99.90;;;;;;6100033;23;20021;-75
2022/03/03 01:09:39;;;;;;;15.88;2.80;;;24.10;99.90;;;;;;6125935;23;20093;-75
2022/03/03 01:12:07;;;;;;;10.50;2.15;;;24.20;99.90;;;;;;6100141;23;20083;-74
2022/03/03 01:14:34;;;;;;;12.77;2.65;;;24.30;99.90;;;;;;6099833;23;20026;-75
2022/03/03 01:17:02;;;;;;;10.23;2.17;;;24.30;99.90;;;;;;6126198;23;20002;-75
2022/03/03 01:19:30;;;;;;;7.60;1.58;;;24.50;99.90;;;;;;6125989;23;20006;-75
2022/03/03 01:21:58;;;;;;;6.57;1.75;;;24.60;99.90;;;;;;6099953;23;20085;-75
2022/03/03 01:24:25;;;;;;;5.25;1.30;;;24.60;99.90;;;;;;6126140;23;20341;-73
2022/03/03 01:26:53;;;;;;;9.15;1.95;;;24.30;99.90;;;;;;6126019;23;20010;-74
2022/03/03 01:29:21;;;;;;;11.32;1.73;;;24.10;99.90;;;;;;6125898;23;20012;-77
2022/03/03 01:31:48;;;;;;;10.23;2.70;;;23.80;99.90;;;;;;6125974;23;20336;-76
2022/03/03 01:34:15;;;;;;;11.63;1.92;;;23.50;99.90;;;;;;6126027;23;20025;-75
2022/03/03 01:36:43;;;;;;;10.93;2.40;;;23.70;99.90;;;;;;6099823;23;20400;-76
2022/03/03 01:39:11;;;;;;;11.40;2.20;;;23.80;99.90;;;;;;6100006;23;20091;-75
2022/03/03 01:41:41;;;;;;;8.73;1.67;;;23.90;99.90;;;;;;6125924;23;20339;-76
2022/03/03 01:44:10;;;;;;;8.13;1.90;;;23.90;99.90;;;;;;6102821;23;20005;-79
2022/03/03 01:46:47;;;;;;;9.65;2.00;;;23.70;99.90;;;;;;6102787;23;20013;-78
2022/03/03 01:49:14;;;;;;;9.50;1.85;;;23.90;99.90;;;;;;6131379;23;20441;-78
2022/03/03 01:51:41;;;;;;;7.00;2.00;;;24.00;99.90;;;;;;6107774;23;20081;-79
2022/03/03 01:54:09;;;;;;;8.93;2.08;;;24.20;99.90;;;;;;6129060;23;19998;-79
2022/03/03 01:56:36;;;;;;;10.80;1.95;;;24.30;99.90;;;;;;6128140;23;20009;-79
2022/03/03 01:59:04;;;;;;;13.70;2.53;;;24.50;99.90;;;;;;6101802;23;20058;-79
2022/03/03 02:01:33;;;;;;;13.60;2.67;;;24.60;99.90;;;;;;6128758;23;20002;-78
2022/03/03 02:04:00;;;;;;;9.57;2.20;;;25.10;99.90;;;;;;6102116;23;20049;-77
2022/03/03 02:06:27;;;;;;;10.35;2.83;;;;;;;;;;6129208;23;20002;-79
2022/03/03 02:08:54;;;;;;;11.23;3.65;;;25.60;99.90;;;;;;6129753;23;20012;-80
2022/03/03 02:11:22;;;;;;;13.27;3.33;;;25.60;99.90;;;;;;6104759;23;20022;-79
2022/03/03 02:13:50;;;;;;;16.98;3.80;;;25.90;99.90;;;;;;6131890;23;20105;-78
2022/03/03 02:16:17;;;;;;;15.75;3.13;;;26.00;99.90;;;;;;6130040;23;20005;-78
2022/03/03 02:18:45;;;;;;;14.45;3.38;;;26.40;99.90;;;;;;6103533;23;20033;-78
2022/03/03 02:21:15;;;;;;;11.50;2.67;;;26.60;99.90;;;;;;6103223;23;20010;-78
2022/03/03 02:23:43;;;;;;;13.25;2.90;;;26.50;99.90;;;;;;6132695;23;20439;-79
2022/03/03 02:26:17;;;;;;;8.90;2.63;;;26.40;99.90;;;;;;6103166;23;20009;-79
2022/03/03 02:28:46;;;;;;;11.55;2.65;;;26.00;99.90;;;;;;6127780;23;20137;-78
2022/03/03 02:31:13;;;;;;;6.57;1.73;;;26.00;99.90;;;;;;6127780;23;20416;-79
2022/03/03 02:33:41;;;;;;;8.68;1.92;;;26.10;99.90;;;;;;6128292;23;19998;-79
2022/03/03 02:36:27;;;;;;;9.15;2.15;;;26.20;99.90;;;;;;6102286;23;20343;-77
2022/03/03 02:39:00;;;;;;;9.40;2.10;;;26.20;99.90;;;;;;6128957;23;20130;-81
2022/03/03 02:41:28;;;;;;;11.63;2.78;;;26.10;99.90;;;;;;6130618;23;20336;-80
2022/03/03 02:43:57;;;;;;;10.40;2.08;;;25.80;99.90;;;;;;6105670;23;20057;-79
2022/03/03 02:46:24;;;;;;;12.68;2.28;;;25.80;99.90;;;;;;6129041;23;20327;-79
2022/03/03 02:48:52;;;;;;;9.45;2.05;;;25.50;99.90;;;;;;6101860;23;20010;-81
2022/03/03 02:51:19;;;;;;;10.20;2.25;;;25.40;99.90;;;;;;6127998;23;20021;-80
2022/03/03 02:53:46;;;;;;;11.52;2.75;;;25.30;99.90;;;;;;6128686;23;19998;-80
2022/03/03 02:56:14;;;;;;;9.68;2.47;;;25.20;99.90;;;;;;6129271;23;20073;-80
2022/03/03 02:58:42;;;;;;;11.57;2.22;;;25.10;99.90;;;;;;6129594;23;20427;-80
2022/03/03 03:01:11;;;;;;;11.75;2.25;;;25.00;99.90;;;;;;6101723;23;20507;-81
2022/03/03 03:03:38;;;;;;;11.30;2.28;;;24.80;99.90;;;;;;6132270;23;20434;-80
2022/03/03 03:06:06;;;;;;;9.15;2.50;;;24.60;99.90;;;;;;6132841;23;20017;-81
2022/03/03 03:08:33;;;;;;;7.32;1.90;;;25.20;99.90;;;;;;6159389;23;20422;-79
2022/03/03 03:11:01;;;;;;;8.15;1.67;;;25.40;99.90;;;;;;6130971;23;20006;-80
2022/03/03 03:13:28;;;;;;;6.63;1.75;;;25.50;99.90;;;;;;6130827;23;20009;-80
2022/03/03 03:15:55;;;;;;;8.00;1.80;;;25.90;99.90;;;;;;6156892;23;20060;-80
2022/03/03 03:18:24;;;;;;;8.95;1.80;;;26.40;99.90;;;;;;6156563;23;19998;-80
2022/03/03 03:20:53;;;;;;;12.52;2.33;;;26.60;99.90;;;;;;6130614;23;20002;-79
2022/03/03 03:23:22;;;;;;;10.03;2.53;;;26.80;99.90;;;;;;6130240;23;20422;-80
2022/03/03 03:25:50;;;;;;;12.00;3.13;;;26.80;99.90;;;;;;6130809;23;20184;-81
2022/03/03 03:28:19;;;;;;;9.07;2.15;;;26.50;99.90;;;;;;6130576;23;20087;-79
2022/03/03 03:30:46;;;;;;;14.52;3.70;;;26.20;99.90;;;;;;6156666;23;20118;-77
2022/03/03 03:33:14;;;;;;;9.45;2.67;;;25.90;99.90;;;;;;6156304;23;20009;-78
2022/03/03 03:35:41;;;;;;;13.57;2.95;;;25.70;99.90;;;;;;6156847;23;20077;-78
2022/03/03 03:38:09;;;;;;;14.27;3.05;;;25.50;99.90;;;;;;6130098;23;20051;-77
2022/03/03 03:40:36;;;;;;;13.82;3.53;;;25.50;99.90;;;;;;6130197;23;20013;-78
2022/03/03 03:43:04;;;;;;;17.45;3.33;;;25.90;99.90;;;;;;6130105;23;20013;-78
2022/03/03 03:45:33;;;;;;;18.48;3.60;;;25.90;99.90;;;;;;6156302;23;20334;-77
2022/03/03 03:48:01;;;;;;;17.80;3.70;;;26.10;99.90;;;;;;6156151;23;20008;-79
2022/03/03 03:50:29;;;;;;;10.40;2.65;;;26.30;99.90;;;;;;6156048;23;20017;-79
2022/03/03 03:52:56;;;;;;;15.32;2.55;;;26.60;99.90;;;;;;6130068;23;20005;-78
2022/03/03 03:55:23;;;;;;;15.63;2.83;;;26.50;99.90;;;;;;6129818;23;20002;-78
2022/03/03 03:57:51;;;;;;;9.27;2.70;;;26.40;99.90;;;;;;6129853;23;20033;-77
2022/03/03 04:00:19;;;;;;;14.70;2.65;;;26.10;99.90;;;;;;6129857;23;20016;-78
2022/03/03 04:02:47;;;;;;;7.53;2.08;;;26.20;99.90;;;;;;6129761;23;20064;-77
2022/03/03 04:05:15;;;;;;;14.82;2.17;;;26.50;99.90;;;;;;6155706;23;20064;-79
2022/03/03 04:07:43;;;;;;;10.57;2.63;;;26.00;99.90;;;;;;6129807;23;20379;-78
2022/03/03 04:10:11;;;;;;;11.18;2.10;;;26.00;99.90;;;;;;6129790;23;20387;-79
2022/03/03 04:12:40;;;;;;;14.35;2.75;;;26.20;99.90;;;;;;6155903;23;20004;-78
2022/03/03 04:15:09;;;;;;;11.90;2.42;;;26.50;99.90;;;;;;6155912;23;20001;-78
2022/03/03 04:17:38;;;;;;;11.90;3.03;;;26.60;99.90;;;;;;6156068;23;20077;-77
2022/03/03 04:20:07;;;;;;;10.80;2.83;;;26.10;99.90;;;;;;6129783;23;20013;-76
2022/03/03 04:22:35;;;;;;;15.00;3.35;;;25.40;99.90;;;;;;6156021;23;20001;-76
2022/03/03 04:25:04;;;;;;;14.82;2.90;;;24.60;99.90;;;;;;6155785;23;20010;-77
2022/03/03 04:27:31;;;;;;;11.73;2.85;;;24.40;99.90;;;;;;6129565;23;20028;-77
2022/03/03 04:29:58;;;;;;;11.95;2.88;;;24.00;99.90;;;;;;6155624;23;20032;-77
2022/03/03 04:32:26;;;;;;;14.93;2.63;;;24.00;99.90;;;;;;6155839;23;20377;-76
2022/03/03 04:34:53;;;;;;;14.93;2.90;;;24.10;99.90;;;;;;6129560;23;20056;-78
2022/03/03 04:37:20;;;;;;;13.88;2.95;;;24.30;99.90;;;;;;6155820;23;20001;-78
2022/03/03 04:39:48;;;;;;;13.90;3.28;;;24.30;99.90;;;;;;6129657;23;20009;-75
2022/03/03 04:42:15;;;;;;;12.48;2.53;;;24.40;99.90;;;;;;6155490;23;20002;-75
2022/03/03 04:44:42;;;;;;;11.95;3.00;;;24.40;99.90;;;;;;6155572;23;20076;-77
2022/03/03 04:47:09;;;;;;;15.82;4.18;;;24.80;99.90;;;;;;6129359;23;20096;-78
2022/03/03 04:49:37;;;;;;;15.30;2.92;;;25.20;99.90;;;;;;6155204;23;20114;-78
2022/03/03 04:52:05;;;;;;;11.85;2.65;;;25.40;99.90;;;;;;6155451;23;20052;-75
2022/03/03 04:54:32;;;;;;;16.00;2.88;;;25.40;99.90;;;;;;6155652;23;20391;-75
2022/03/03 04:57:00;;;;;;;13.70;3.05;;;25.10;99.90;;;;;;6155554;23;20454;-76
2022/03/03 04:59:27;;;;;;;16.80;3.60;;;24.40;99.90;;;;;;6155706;23;20338;-75
2022/03/03 05:01:54;;;;;;;18.80;3.63;;;24.00;99.90;;;;;;6155517;23;20005;-75
2022/03/03 05:04:22;;;;;;;15.48;3.10;;;23.90;99.90;;;;;;6155421;23;20088;-75
2022/03/03 05:06:49;;;;;;;12.98;3.08;;;23.90;99.90;;;;;;6155540;23;20006;-74
2022/03/03 05:09:17;;;;;;;17.80;4.03;;;24.00;99.90;;;;;;6129173;23;20430;-75
2022/03/03 05:11:45;;;;;;;15.68;3.20;;;23.90;99.90;;;;;;6155488;23;20001;-77
2022/03/03 05:14:12;;;;;;;18.55;3.60;;;24.00;99.90;;;;;;6129932;23;20008;-78
2022/03/03 05:16:40;;;;;;;19.17;3.95;;;23.90;99.90;;;;;;6129247;23;19997;-77
2022/03/03 05:19:07;;;;;;;16.30;3.30;;;24.00;99.90;;;;;;6155577;23;20025;-76
2022/03/03 05:21:34;;;;;;;17.33;3.58;;;24.00;99.90;;;;;;6129151;23;20013;-77
2022/03/03 05:24:02;;;;;;;19.02;3.85;;;24.00;99.90;;;;;;6128767;23;20005;-77
2022/03/03 05:26:30;;;;;;;21.98;3.85;;;24.00;99.90;;;;;;6129223;23;20056;-76
2022/03/03 05:28:57;;;;;;;17.73;4.03;;;24.10;99.90;;;;;;6155334;23;20008;-78
2022/03/03 05:31:24;;;;;;;16.42;3.20;;;24.10;99.90;;;;;;6155365;23;19997;-76
2022/03/03 05:33:52;;;;;;;17.83;3.17;;;24.10;99.90;;;;;;6129202;23;20010;-77
2022/03/03 05:36:19;;;;;;;13.80;3.22;;;23.90;99.90;;;;;;6155296;23;20391;-78
2022/03/03 05:38:46;;;;;;;14.27;3.22;;;23.80;99.90;;;;;;6155399;23;20008;-77
2022/03/03 05:41:14;;;;;;;16.08;3.47;;;23.80;99.90;;;;;;6129240;23;20089;-77
2022/03/03 05:43:41;;;;;;;17.92;3.33;;;23.90;99.90;;;;;;6129093;23;20089;-77
2022/03/03 05:46:09;;;;;;;14.90;2.75;;;23.90;99.90;;;;;;6155199;23;20009;-77
2022/03/03 05:48:36;;;;;;;15.95;3.08;;;23.70;99.90;;;;;;6155312;23;20002;-77
2022/03/03 05:51:03;;;;;;;18.17;4.28;;;23.70;99.90;;;;;;6128812;23;20029;-77
2022/03/03 05:53:31;;;;;;;19.92;3.78;;;24.00;99.90;;;;;;6155268;23;20025;-77
2022/03/03 05:56:04;;;;;;;21.67;4.38;;;24.40;99.90;;;;;;6129088;23;20006;-77
2022/03/03 05:58:44;;;;;;;18.35;3.85;;;24.30;99.90;;;;;;6155137;23;20048;-78
2022/03/03 06:01:13;;;;;;;23.00;4.25;;;24.20;99.90;;;;;;6129196;23;20006;-78
2022/03/03 06:03:42;;;;;;;21.83;4.00;;;24.00;99.90;;;;;;6128418;23;20006;-77
2022/03/03 06:06:31;;;;;;;20.73;3.75;;;24.00;99.90;;;;;;6129088;23;20183;-77
2022/03/03 06:09:22;;;;;;;21.40;4.10;;;24.30;99.90;;;;;;6155244;23;20427;-77
2022/03/03 06:12:14;;;;;;;19.08;3.95;;;24.50;99.90;;;;;;6155202;23;20005;-77
2022/03/03 06:15:02;;;;;;;23.50;4.35;;;24.60;99.90;;;;;;6136460;23;20005;-77
2022/03/03 06:17:32;;;;;;;21.77;4.57;;;24.40;99.90;;;;;;6128278;23;20001;-76
2022/03/03 06:20:00;;;;;;;;;;;24.40;99.90;;;;;;6155812;23;20060;-76
2022/03/03 06:22:28;;;;;;;21.60;5.28;;;24.70;99.90;;;;;;6155061;23;19907;-78
2022/03/03 06:24:56;;;;;;;21.17;4.30;;;24.80;99.90;;;;;;6155248;23;20138;-77
2022/03/03 06:27:23;;;;;;;18.83;4.45;;;24.70;99.90;;;;;;6129169;23;20323;-77
2022/03/03 06:29:51;;;;;;;27.77;5.63;;;24.50;99.90;;;;;;6128751;23;20009;-77
2022/03/03 06:32:18;;;;;;;16.98;3.85;;;24.20;99.90;;;;;;6155107;23;20030;-78
2022/03/03 06:34:45;;;;;;;11.98;3.00;;;23.80;99.90;;;;;;6155114;23;20025;-77
2022/03/03 06:37:13;;;;;;;13.38;3.05;;;23.40;99.90;;;;;;6156807;23;20327;-78
2022/03/03 06:39:40;;;;;;;13.32;3.42;;;23.10;99.90;;;;;;6130465;23;20033;-78
2022/03/03 06:42:08;;;;;;;15.57;3.05;;;22.80;99.90;;;;;;6156782;23;20027;-77
2022/03/03 06:44:35;;;;;;;16.92;3.20;;;22.70;99.90;;;;;;6156634;23;20005;-78
2022/03/03 06:47:03;;;;;;;17.52;3.60;;;22.70;99.90;;;;;;6156828;23;20006;-79
2022/03/03 06:49:31;;;;;;;20.67;4.03;;;22.80;99.90;;;;;;6130265;23;20016;-78
2022/03/03 06:52:01;;;;;;;28.23;4.68;;;23.00;99.90;;;;;;6130532;23;20060;-77
2022/03/03 06:54:32;;;;;;;;;;;23.00;99.90;;;;;;6157188;23;19997;-77
2022/03/03 06:56:59;;;;;;;25.00;4.35;;;23.10;99.90;;;;;;6130537;23;20314;-77
2022/03/03 06:59:28;;;;;;;25.27;5.18;;;23.10;99.90;;;;;;6130427;23;20012;-76
2022/03/03 07:01:59;;;;;;;18.83;4.40;;;23.10;99.90;;;;;;6156707;23;20002;-77
2022/03/03 07:04:29;;;;;;;23.30;5.38;;;23.10;99.90;;;;;;6129968;23;20028;-76
2022/03/03 07:06:57;;;;;;;27.60;4.68;;;23.20;99.90;;;;;;6156680;23;20009;-77
2022/03/03 07:09:24;;;;;;;28.83;5.13;;;23.20;99.90;;;;;;6156371;23;20435;-78
2022/03/03 07:11:52;;;;;;;21.17;4.05;;;23.30;99.90;;;;;;6130315;23;20033;-76
2022/03/03 07:14:20;;;;;;;23.58;4.95;;;23.30;99.90;;;;;;6156510;23;20056;-77
2022/03/03 07:17:13;;;;;;;24.08;4.65;;;23.30;99.90;;;;;;6130190;23;20002;-79
2022/03/03 07:19:58;;;;;;;21.05;4.25;;;23.40;99.90;;;;;;6156421;23;20009;-76
2022/03/03 07:22:40;;;;;;;18.23;4.65;;;23.30;99.90;;;;;;6130211;23;20006;-77
2022/03/03 07:25:15;;;;;;;26.90;4.47;;;23.10;99.90;;;;;;6156581;23;20085;-79
2022/03/03 07:27:46;;;;;;;22.80;4.50;;;23.00;99.90;;;;;;6130355;23;20439;-79
2022/03/03 07:30:17;;;;;;;20.35;3.80;;;23.00;99.90;;;;;;6129907;23;20457;-78
2022/03/03 07:32:48;;;;;;;16.33;3.83;;;22.80;99.90;;;;;;6156299;23;20312;-79
2022/03/03 07:35:16;;;;;;;25.30;5.15;;;22.80;99.90;;;;;;6156332;23;20002;-77
2022/03/03 07:37:59;;;;;;;17.55;3.70;;;22.90;99.90;;;;;;6130110;23;20358;-79
2022/03/03 07:40:31;;;;;;;20.33;4.38;;;22.90;99.90;;;;;;6130003;23;20148;-77
2022/03/03 07:43:00;;;;;;;14.07;4.35;;;23.00;99.90;;;;;;6130016;23;20446;-79
2022/03/03 07:45:29;;;;;;;24.33;5.00;;;23.00;99.90;;;;;;6129972;23;20013;-80
2022/03/03 07:47:57;;;;;;;25.77;4.63;;;22.90;99.90;;;;;;6129628;23;20494;-81
2022/03/03 07:50:28;;;;;;;19.48;4.65;;;22.90;99.90;;;;;;6129825;23;20013;-80
2022/03/03 07:52:56;;;;;;;21.20;4.72;;;23.00;99.90;;;;;;6156409;23;20457;-79
2022/03/03 07:55:24;;;;;;;22.92;4.68;;;23.00;99.90;;;;;;6129941;23;20382;-80
2022/03/03 07:57:59;;;;;;;23.83;4.97;;;23.00;99.90;;;;;;6129833;23;20006;-78
2022/03/03 08:00:34;;;;;;;23.27;4.57;;;23.10;99.90;;;;;;6130036;23;20481;-80
2022/03/03 08:03:08;;;;;;;20.65;4.40;;;23.20;99.90;;;;;;6129867;23;20010;-79
2022/03/03 08:05:37;;;;;;;16.25;3.58;;;23.10;99.90;;;;;;6102428;23;20021;-79
2022/03/03 08:08:08;;;;;;;22.30;4.93;;;23.10;99.90;;;;;;6100539;23;20037;-79
2022/03/03 08:10:39;;;;;;;24.02;4.55;;;23.00;99.90;;;;;;6126489;23;20010;-79
2022/03/03 08:13:10;;;;;;;20.38;4.43;;;22.90;99.90;;;;;;6076890;23;20013;-79
2022/03/03 08:15:38;;;;;;;19.77;4.43;;;22.80;99.90;;;;;;6100304;23;20320;-80
2022/03/03 08:18:08;;;;;;;21.17;4.22;;;22.80;99.90;;;;;;6100250;23;20340;-79
2022/03/03 08:20:36;;;;;;;21.37;4.27;;;22.70;99.90;;;;;;6100025;23;20005;-78
2022/03/03 08:23:06;;;;;;;20.17;4.28;;;22.70;99.90;;;;;;6126439;23;20311;-77
2022/03/03 08:25:34;;;;;;;;;;;22.60;99.90;;;;;;6126878;23;20030;-78
2022/03/03 08:28:03;;;;;;;22.10;4.53;;;22.60;99.90;;;;;;6100223;23;20236;-79
2022/03/03 08:30:30;;;;;;;21.40;5.07;;;22.60;99.90;;;;;;6099989;23;20016;-78
2022/03/03 08:33:03;;;;;;;19.25;4.45;;;22.60;99.90;;;;;;6100298;23;20450;-79
2022/03/03 08:35:36;;;;;;;17.52;3.22;;;22.50;99.90;;;;;;6126150;23;20002;-78
2022/03/03 08:38:23;;;;;;;16.17;3.38;;;22.40;99.90;;;;;;6126342;23;20009;-78
2022/03/03 08:40:53;;;;;;;19.42;3.15;;;22.30;99.90;;;;;;6126385;23;20006;-79
2022/03/03 08:43:21;;;;;;;15.70;2.55;;;22.20;99.90;;;;;;6126290;23;20006;-79
2022/03/03 08:45:49;;;;;;;17.13;3.42;;;22.20;99.90;;;;;;6126248;23;20002;-78
2022/03/03 08:48:18;;;;;;;17.10;3.03;;;22.20;99.90;;;;;;6100050;23;20013;-78
2022/03/03 08:50:46;;;;;;;14.55;2.90;;;22.10;99.90;;;;;;6126069;23;20002;-78
2022/03/03 08:53:14;;;;;;;15.65;2.42;;;22.00;99.90;;;;;;6125996;23;19998;-78
2022/03/03 08:55:42;;;;;;;11.13;2.40;;;22.00;99.90;;;;;;6126191;23;20001;-78
2022/03/03 08:58:10;;;;;;;13.07;2.03;;;22.00;99.90;;;;;;6100106;23;20061;-78
2022/03/03 09:00:38;;;;;;;13.82;2.35;;;22.00;99.90;;;;;;6100177;23;20016;-78
2022/03/03 09:03:05;;;;;;;18.25;3.75;;;22.00;99.90;;;;;;6100186;23;20451;-79
2022/03/03 09:05:33;;;;;;;13.70;3.13;;;22.00;99.90;;;;;;6099885;23;20017;-78
2022/03/03 09:08:00;;;;;;;10.95;2.65;;;22.00;99.90;;;;;;6100038;23;20009;-78
2022/03/03 09:10:29;;;;;;;21.52;3.58;;;22.00;99.90;;;;;;6126095;23;20427;-79
2022/03/03 09:12:56;;;;;;;18.20;2.97;;;22.00;99.90;;;;;;6099974;23;20005;-78
2022/03/03 09:15:24;;;;;;;21.85;3.50;;;22.00;99.90;;;;;;6100151;23;20009;-79
2022/03/03 09:17:52;;;;;;;20.95;3.65;;;22.00;99.90;;;;;;6099952;23;20106;-78
2022/03/03 09:20:19;;;;;;;19.67;3.63;;;22.00;99.90;;;;;;6126040;23;20014;-78
2022/03/03 09:22:47;;;;;;;25.48;3.40;;;22.00;99.90;;;;;;6100018;23;20450;-77
2022/03/03 09:25:16;;;;;;;25.13;4.00;;;22.00;99.90;;;;;;6099696;23;20072;-80
2022/03/03 09:27:44;;;;;;;19.02;3.75;;;22.00;99.90;;;;;;6099804;23;20342;-78
2022/03/03 09:30:13;;;;;;;20.70;3.20;;;22.00;99.90;;;;;;6076179;23;20020;-79
2022/03/03 09:32:46;;;;;;;19.02;3.42;;;22.00;99.90;;;;;;6101600;23;20006;-78
2022/03/03 09:35:13;;;;;;;15.80;3.00;;;22.00;99.90;;;;;;6100060;23;20002;-78
2022/03/03 09:37:45;;;;;;;12.38;2.75;;;22.00;99.90;;;;;;6098667;23;20009;-79
2022/03/03 09:40:13;;;;;;;14.98;2.75;;;22.00;99.90;;;;;;6099877;23;20010;-79
2022/03/03 09:42:40;;;;;;;13.23;2.33;;;21.90;99.90;;;;;;6100025;23;20495;-78
2022/03/03 09:45:15;;;;;;;18.27;3.50;;;21.90;99.90;;;;;;6125951;23;20012;-79
2022/03/03 09:47:43;;;;;;;17.75;3.25;;;21.90;99.90;;;;;;6099999;23;20010;-78
2022/03/03 09:50:13;;;;;;;17.13;3.78;;;21.90;99.90;;;;;;6100677;23;20037;-80
2022/03/03 09:52:45;;;;;;;17.50;3.40;;;21.90;99.90;;;;;;6125729;23;20005;-81
2022/03/03 09:55:15;;;;;;;21.40;3.20;;;21.90;99.90;;;;;;6125626;23;20081;-79
2022/03/03 09:57:44;;;;;;;18.00;2.90;;;21.90;99.90;;;;;;6125818;23;20069;-79
2022/03/03 10:00:12;;;;;;;17.33;2.60;;;21.90;99.90;;;;;;6099764;23;20006;-80
2022/03/03 10:02:58;;;;;;;14.50;2.90;;;21.90;99.90;;;;;;6125759;23;20077;-80
2022/03/03 10:05:42;;;;;;;11.88;2.30;;;21.80;99.90;;;;;;6150783;23;20482;-80
2022/03/03 10:08:15;;;;;;;12.50;2.00;;;21.80;99.90;;;;;;6155346;23;20029;-79
2022/03/03 10:10:47;;;;;;;12.18;2.15;;;21.70;99.90;;;;;;6128471;23;20346;-78
2022/03/03 10:13:16;;;;;;;10.35;2.28;;;21.70;99.90;;;;;;6129512;23;20028;-78
2022/03/03 10:15:47;;;;;;;13.73;2.22;;;21.60;99.90;;;;;;6157126;23;19998;-80
2022/03/03 10:18:16;;;;;;;9.40;2.45;;;21.70;99.90;;;;;;6131851;23;20427;-80
2022/03/03 10:20:51;;;;;;;14.13;2.90;;;21.70;99.90;;;;;;6130842;23;20017;-80
2022/03/03 10:23:24;;;;;;;16.20;2.92;;;21.70;99.90;;;;;;6157106;23;20331;-80
2022/03/03 10:25:53;;;;;;;12.45;2.80;;;21.70;99.90;;;;;;6130825;23;20375;-79
2022/03/03 10:28:30;;;;;;;18.17;3.58;;;21.70;99.90;;;;;;6130710;23;20063;-79
2022/03/03 10:31:00;;;;;;;15.02;3.45;;;21.70;99.90;;;;;;6157061;23;20010;-79
2022/03/03 10:33:29;;;;;;;21.08;3.65;;;21.70;99.90;;;;;;6130816;23;20009;-80
2022/03/03 10:36:14;;;;;;;13.80;3.70;;;21.70;99.90;;;;;;6157088;23;20001;-82
2022/03/03 10:38:57;;;;;;;17.17;4.30;;;21.80;99.90;;;;;;6130786;23;20044;-79
2022/03/03 10:41:39;;;;;;;18.27;3.53;;;21.70;99.90;;;;;;6130657;23;20398;-80
2022/03/03 10:44:17;;;;;;;15.05;3.10;;;21.70;99.90;;;;;;6156974;23;20008;-80
2022/03/03 10:47:10;;;;;;;19.98;3.88;;;21.70;99.90;;;;;;6127022;23;20009;-80
2022/03/03 10:49:49;;;;;;;21.65;2.97;;;21.70;99.90;;;;;;6130584;23;20005;-80
2022/03/03 10:52:35;;;;;;;19.35;3.13;;;21.70;99.90;;;;;;6130589;23;20029;-81
2022/03/03 10:55:16;;;;;;;17.27;3.97;;;21.70;99.90;;;;;;6156817;23;20036;-80
2022/03/03 10:57:51;;;;;;;18.77;3.42;;;21.70;99.90;;;;;;6156722;23;20335;-80
2022/03/03 11:00:24;;;;;;;21.92;4.03;;;21.70;99.90;;;;;;6156818;23;20012;-80
2022/03/03 11:02:54;;;;;;;20.05;3.42;;;21.70;99.90;;;;;;6120624;23;20069;-80
2022/03/03 11:05:25;;;;;;;26.50;4.30;;;21.70;99.90;;;;;;6156307;23;20025;-80
2022/03/03 11:07:56;;;;;;;;;;;21.70;99.90;;;;;;6157304;23;20450;-80
2022/03/03 11:10:26;;;;;;;17.98;3.38;;;21.70;99.90;;;;;;6130289;23;19909;-81
2022/03/03 11:12:54;;;;;;;20.10;4.53;;;21.70;99.90;;;;;;6156581;23;20009;-81
2022/03/03 11:15:24;;;;;;;25.42;4.07;;;21.80;99.90;;;;;;6130377;23;20006;-79
2022/03/03 11:17:53;;;;;;;19.73;4.20;;;21.80;99.90;;;;;;6156566;23;20077;-80
2022/03/03 11:20:23;;;;;;;22.20;4.18;;;21.90;99.90;;;;;;6130105;23;20250;-79
2022/03/03 11:22:55;;;;;;;23.27;4.43;;;21.90;99.90;;;;;;6129757;23;20009;-79
2022/03/03 11:25:35;;;;;;;25.80;5.43;;;21.90;99.90;;;;;;6130212;23;20027;-80
2022/03/03 11:28:15;;;;;;;25.33;4.57;;;21.90;99.90;;;;;;6130300;23;20063;-78
2022/03/03 11:30:46;;;;;;;21.65;4.05;;;22.00;99.90;;;;;;6130038;23;20037;-78
2022/03/03 11:33:31;;;;;;;23.77;4.32;;;22.00;99.90;;;;;;6156484;23;19998;-79
2022/03/03 11:35:59;;;;;;;20.85;3.80;;;21.90;99.90;;;;;;6130361;23;20002;-80
2022/03/03 11:38:43;;;;;;;23.83;4.72;;;21.90;99.90;;;;;;6156503;23;20005;-79
2022/03/03 11:41:10;;;;;;;30.02;5.57;;;21.90;99.90;;;;;;6130200;23;20315;-79
2022/03/03 11:44:01;;;;;;;32.08;6.18;;;21.90;99.90;;;;;;6156346;23;20009;-80
2022/03/03 11:46:47;;;;;;;28.65;5.00;;;21.90;99.90;;;;;;6113342;23;20013;-80
2022/03/03 11:49:25;;;;;;;32.90;5.00;;;21.90;99.90;;;;;;6129901;23;20335;-79
2022/03/03 11:51:56;;;;;;;27.98;5.35;;;21.90;99.90;;;;;;6129956;23;20002;-79
2022/03/03 11:54:30;;;;;;;;;;;21.90;99.90;;;;;;6129246;23;20055;-79
2022/03/03 11:57:07;;;;;;;33.40;5.18;;;21.90;99.90;;;;;;6129984;23;20229;-79
2022/03/03 11:59:51;;;;;;;31.10;5.45;;;21.90;99.90;;;;;;6156253;23;20009;-79
2022/03/03 12:02:27;;;;;;;27.33;4.88;;;21.90;99.90;;;;;;6156316;23;20002;-79
2022/03/03 12:05:43;;;;;;;23.92;4.35;;;21.90;99.90;;;;;;6105354;23;20439;-80
2022/03/03 12:08:16;;;;;;;29.88;5.88;;;21.90;99.90;;;;;;6063046;23;20433;-81
2022/03/03 12:11:07;;;;;;;21.92;4.78;;;21.90;99.90;;;;;;6156097;23;20016;-79
2022/03/03 12:13:41;;;;;;;25.02;5.53;;;21.80;99.90;;;;;;6130064;23;20005;-78
2022/03/03 12:16:22;;;;;;;28.00;4.32;;;21.80;99.90;;;;;;6156105;23;19998;-78
2022/03/03 12:18:55;;;;;;;28.58;4.95;;;21.80;99.90;;;;;;6129936;23;20493;-78
2022/03/03 12:21:31;;;;;;;28.13;4.93;;;21.70;99.90;;;;;;6156110;23;20426;-79
2022/03/03 12:24:14;;;;;;;26.33;4.70;;;21.80;99.90;;;;;;6130126;23;20006;-78
2022/03/03 12:26:56;;;;;;;27.13;4.85;;;21.80;99.90;;;;;;6129713;23;20005;-78
2022/03/03 12:29:48;;;;;;;24.40;5.20;;;21.80;99.90;;;;;;6129677;23;20014;-79
2022/03/03 12:32:41;;;;;;;33.40;5.40;;;21.80;99.90;;;;;;6156019;23;20025;-78
2022/03/03 12:35:31;;;;;;;25.48;4.35;;;21.80;99.90;;;;;;6155947;23;20004;-80
2022/03/03 12:38:02;;;;;;;27.88;4.80;;;21.90;99.90;;;;;;6129832;23;20025;-77
2022/03/03 12:40:31;;;;;;;;;;;21.80;99.90;;;;;;6130119;23;20032;-78
2022/03/03 12:42:59;;;;;;;23.70;4.05;;;21.80;99.90;;;;;;6155876;23;19901;-78
2022/03/03 12:45:31;;;;;;;25.48;4.20;;;21.80;99.90;;;;;;6130943;23;20033;-78
2022/03/03 12:47:59;;;;;;;19.48;3.45;;;21.70;99.90;;;;;;6129505;23;20013;-79
2022/03/03 12:50:29;;;;;;;27.52;4.05;;;21.70;99.90;;;;;;6154726;23;20075;-78
2022/03/03 12:53:00;;;;;;;;;;;21.70;99.90;;;;;;6129964;23;20009;-77
2022/03/03 12:55:48;;;;;;;19.83;3.17;;;21.70;99.90;;;;;;6129604;23;20289;-77
2022/03/03 12:58:19;;;;;;;24.30;3.63;;;21.70;99.90;;;;;;6155748;23;20002;-78